sensor_id;sensor_type;location;lat;lon;timestamp;P1;durP1;ratioP1;P2;durP2;ratioP2
40154;SDS011;25875;48.202;16.334;2023-11-21T00:01:09;3.95;;;2.50;;
40154;SDS011;25875;48.202;16.334;2023-11-21T00:03:38;4.40;;;2.75;;
40154;SDS011;25875;48.202;16.334;2023-11-21T00:06:05;5.28;;;2.88;;
40154;SDS011;25875;48.202;16.334;2023-11-21T00:08:34;7.05;;;2.80;;
40154;SDS011;25875;48.202;16.334;2023-11-21T00:11:01;4.07;;;2.63;;
40154;SDS011;25875;48.202;16.334;2023-11-21T00:13:27;5.32;;;2.85;;
40154;SDS011;25875;48.202;16.334;2023-11-21T00:15:54;5.80;;;2.45;;
40154;SDS011;25875;48.202;16.334;2023-11-21T00:18:20;4.53;;;2.28;;
40154;SDS011;25875;48.202;16.334;2023-11-21T00:20:48;4.60;;;2.90;;
40154;SDS011;25875;48.202;16.334;2023-11-21T00:23:15;5.38;;;2.95;;
40154;SDS011;25875;48.202;16.334;2023-11-21T00:25:43;5.75;;;2.70;;
40154;SDS011;25875;48.202;16.334;2023-11-21T00:28:10;4.90;;;2.88;;
40154;SDS011;25875;48.202;16.334;2023-11-21T00:30:36;4.65;;;2.40;;
40154;SDS011;25875;48.202;16.334;2023-11-21T00:33:03;4.88;;;3.08;;
40154;SDS011;25875;48.202;16.334;2023-11-21T00:35:30;6.32;;;2.58;;
40154;SDS011;25875;48.202;16.334;2023-11-21T00:37:58;7.70;;;3.22;;
40154;SDS011;25875;48.202;16.334;2023-11-21T00:40:24;5.15;;;2.92;;
40154;SDS011;25875;48.202;16.334;2023-11-21T00:42:51;4.28;;;2.58;;
40154;SDS011;25875;48.202;16.334;2023-11-21T00:45:18;5.43;;;2.88;;
40154;SDS011;25875;48.202;16.334;2023-11-21T00:47:45;4.65;;;2.85;;
40154;SDS011;25875;48.202;16.334;2023-11-21T00:50:12;7.07;;;3.35;;
40154;SDS011;25875;48.202;16.334;2023-11-21T00:52:38;7.13;;;3.00;;
40154;SDS011;25875;48.202;16.334;2023-11-21T00:55:07;5.68;;;3.00;;
40154;SDS011;25875;48.202;16.334;2023-11-21T00:57:35;4.63;;;2.70;;
40154;SDS011;25875;48.202;16.334;2023-11-21T01:00:02;5.53;;;2.85;;
40154;SDS011;25875;48.202;16.334;2023-11-21T01:02:34;6.50;;;3.03;;
40154;SDS011;25875;48.202;16.334;2023-11-21T01:05:01;6.93;;;3.30;;
40154;SDS011;25875;48.202;16.334;2023-11-21T01:07:28;6.28;;;3.22;;
40154;SDS011;25875;48.202;16.334;2023-11-21T01:09:55;6.40;;;2.92;;
40154;SDS011;25875;48.202;16.334;2023-11-21T01:12:23;4.93;;;3.10;;
40154;SDS011;25875;48.202;16.334;2023-11-21T01:14:50;6.90;;;2.88;;
40154;SDS011;25875;48.202;16.334;2023-11-21T01:17:17;7.90;;;3.10;;
40154;SDS011;25875;48.202;16.334;2023-11-21T01:19:44;6.63;;;3.35;;
40154;SDS011;25875;48.202;16.334;2023-11-21T01:22:11;5.22;;;3.50;;
40154;SDS011;25875;48.202;16.334;2023-11-21T01:24:38;5.60;;;2.90;;
40154;SDS011;25875;48.202;16.334;2023-11-21T01:27:04;4.03;;;2.58;;
40154;SDS011;25875;48.202;16.334;2023-11-21T01:29:33;6.45;;;3.38;;
40154;SDS011;25875;48.202;16.334;2023-11-21T01:32:01;4.63;;;2.42;;
40154;SDS011;25875;48.202;16.334;2023-11-21T01:34:28;4.43;;;2.58;;
40154;SDS011;25875;48.202;16.334;2023-11-21T01:36:55;4.90;;;3.20;;
40154;SDS011;25875;48.202;16.334;2023-11-21T01:39:24;5.32;;;2.83;;
40154;SDS011;25875;48.202;16.334;2023-11-21T01:41:51;4.43;;;2.60;;
40154;SDS011;25875;48.202;16.334;2023-11-21T01:44:18;4.97;;;3.13;;
40154;SDS011;25875;48.202;16.334;2023-11-21T01:46:46;3.75;;;2.45;;
40154;SDS011;25875;48.202;16.334;2023-11-21T01:49:14;6.18;;;3.33;;
40154;SDS011;25875;48.202;16.334;2023-11-21T01:51:43;8.18;;;3.10;;
40154;SDS011;25875;48.202;16.334;2023-11-21T01:54:14;5.05;;;2.72;;
40154;SDS011;25875;48.202;16.334;2023-11-21T01:56:42;5.55;;;3.33;;
40154;SDS011;25875;48.202;16.334;2023-11-21T01:59:09;6.20;;;3.13;;
40154;SDS011;25875;48.202;16.334;2023-11-21T02:01:37;5.43;;;2.80;;
40154;SDS011;25875;48.202;16.334;2023-11-21T02:04:05;5.78;;;2.97;;
40154;SDS011;25875;48.202;16.334;2023-11-21T02:06:33;4.28;;;2.55;;
40154;SDS011;25875;48.202;16.334;2023-11-21T02:09:00;5.85;;;3.30;;
40154;SDS011;25875;48.202;16.334;2023-11-21T02:11:26;6.25;;;3.00;;
40154;SDS011;25875;48.202;16.334;2023-11-21T02:13:53;5.32;;;3.08;;
40154;SDS011;25875;48.202;16.334;2023-11-21T02:16:20;6.50;;;3.55;;
40154;SDS011;25875;48.202;16.334;2023-11-21T02:18:47;4.68;;;2.60;;
40154;SDS011;25875;48.202;16.334;2023-11-21T02:21:16;4.85;;;3.00;;
40154;SDS011;25875;48.202;16.334;2023-11-21T02:23:45;9.75;;;3.22;;
40154;SDS011;25875;48.202;16.334;2023-11-21T02:26:12;3.90;;;2.50;;
40154;SDS011;25875;48.202;16.334;2023-11-21T02:28:39;4.63;;;2.63;;
40154;SDS011;25875;48.202;16.334;2023-11-21T02:31:06;6.45;;;3.17;;
40154;SDS011;25875;48.202;16.334;2023-11-21T02:33:33;6.40;;;2.95;;
40154;SDS011;25875;48.202;16.334;2023-11-21T02:35:59;5.60;;;2.40;;
40154;SDS011;25875;48.202;16.334;2023-11-21T02:38:26;7.82;;;3.28;;
40154;SDS011;25875;48.202;16.334;2023-11-21T02:40:55;6.07;;;3.22;;
40154;SDS011;25875;48.202;16.334;2023-11-21T02:43:23;4.07;;;2.45;;
40154;SDS011;25875;48.202;16.334;2023-11-21T02:45:50;5.65;;;2.47;;
40154;SDS011;25875;48.202;16.334;2023-11-21T02:48:16;5.40;;;2.70;;
40154;SDS011;25875;48.202;16.334;2023-11-21T02:50:43;5.30;;;2.70;;
40154;SDS011;25875;48.202;16.334;2023-11-21T02:53:09;4.30;;;2.60;;
40154;SDS011;25875;48.202;16.334;2023-11-21T02:55:37;4.35;;;2.72;;
40154;SDS011;25875;48.202;16.334;2023-11-21T02:58:05;5.30;;;2.80;;
40154;SDS011;25875;48.202;16.334;2023-11-21T03:00:32;6.30;;;2.60;;
40154;SDS011;25875;48.202;16.334;2023-11-21T03:02:58;5.95;;;3.17;;
40154;SDS011;25875;48.202;16.334;2023-11-21T03:05:25;6.22;;;3.00;;
40154;SDS011;25875;48.202;16.334;2023-11-21T03:07:54;6.55;;;3.17;;
40154;SDS011;25875;48.202;16.334;2023-11-21T03:10:20;6.55;;;2.45;;
40154;SDS011;25875;48.202;16.334;2023-11-21T03:12:47;6.20;;;3.13;;
40154;SDS011;25875;48.202;16.334;2023-11-21T03:15:15;4.25;;;2.90;;
40154;SDS011;25875;48.202;16.334;2023-11-21T03:17:42;4.57;;;2.20;;
40154;SDS011;25875;48.202;16.334;2023-11-21T03:20:08;5.05;;;2.40;;
40154;SDS011;25875;48.202;16.334;2023-11-21T03:22:38;3.85;;;2.38;;
40154;SDS011;25875;48.202;16.334;2023-11-21T03:25:05;5.45;;;2.20;;
40154;SDS011;25875;48.202;16.334;2023-11-21T03:27:35;5.07;;;2.75;;
40154;SDS011;25875;48.202;16.334;2023-11-21T03:30:02;5.75;;;3.08;;
40154;SDS011;25875;48.202;16.334;2023-11-21T03:32:33;4.38;;;2.50;;
40154;SDS011;25875;48.202;16.334;2023-11-21T03:35:00;4.72;;;2.80;;
40154;SDS011;25875;48.202;16.334;2023-11-21T03:37:27;4.13;;;2.53;;
40154;SDS011;25875;48.202;16.334;2023-11-21T03:39:54;5.00;;;2.70;;
40154;SDS011;25875;48.202;16.334;2023-11-21T03:42:21;3.90;;;2.47;;
40154;SDS011;25875;48.202;16.334;2023-11-21T03:44:48;6.63;;;3.30;;
40154;SDS011;25875;48.202;16.334;2023-11-21T03:47:14;5.75;;;2.72;;
40154;SDS011;25875;48.202;16.334;2023-11-21T03:49:42;5.85;;;3.03;;
40154;SDS011;25875;48.202;16.334;2023-11-21T03:52:09;6.15;;;2.70;;
40154;SDS011;25875;48.202;16.334;2023-11-21T03:54:35;6.13;;;2.97;;
40154;SDS011;25875;48.202;16.334;2023-11-21T03:57:02;5.45;;;2.72;;
40154;SDS011;25875;48.202;16.334;2023-11-21T03:59:29;5.50;;;2.60;;
40154;SDS011;25875;48.202;16.334;2023-11-21T04:01:56;6.25;;;2.80;;
40154;SDS011;25875;48.202;16.334;2023-11-21T04:04:23;4.95;;;2.70;;
40154;SDS011;25875;48.202;16.334;2023-11-21T04:06:51;7.25;;;3.47;;
40154;SDS011;25875;48.202;16.334;2023-11-21T04:09:18;5.10;;;3.28;;
40154;SDS011;25875;48.202;16.334;2023-11-21T04:11:45;4.80;;;2.80;;
40154;SDS011;25875;48.202;16.334;2023-11-21T04:14:11;3.78;;;2.58;;
40154;SDS011;25875;48.202;16.334;2023-11-21T04:16:38;6.35;;;2.83;;
40154;SDS011;25875;48.202;16.334;2023-11-21T04:19:05;5.20;;;2.88;;
40154;SDS011;25875;48.202;16.334;2023-11-21T04:21:31;4.72;;;2.45;;
40154;SDS011;25875;48.202;16.334;2023-11-21T04:23:59;5.22;;;2.55;;
40154;SDS011;25875;48.202;16.334;2023-11-21T04:26:26;4.45;;;2.30;;
40154;SDS011;25875;48.202;16.334;2023-11-21T04:28:52;7.38;;;2.85;;
40154;SDS011;25875;48.202;16.334;2023-11-21T04:31:19;5.72;;;2.53;;
40154;SDS011;25875;48.202;16.334;2023-11-21T04:33:46;4.85;;;3.00;;
40154;SDS011;25875;48.202;16.334;2023-11-21T04:36:12;4.68;;;2.70;;
40154;SDS011;25875;48.202;16.334;2023-11-21T04:38:39;5.50;;;2.70;;
40154;SDS011;25875;48.202;16.334;2023-11-21T04:41:07;5.20;;;2.72;;
40154;SDS011;25875;48.202;16.334;2023-11-21T04:43:34;8.15;;;3.08;;
40154;SDS011;25875;48.202;16.334;2023-11-21T04:46:01;7.85;;;2.75;;
40154;SDS011;25875;48.202;16.334;2023-11-21T04:48:28;5.30;;;2.85;;
40154;SDS011;25875;48.202;16.334;2023-11-21T04:50:54;7.57;;;2.70;;
40154;SDS011;25875;48.202;16.334;2023-11-21T04:53:21;5.30;;;3.00;;
40154;SDS011;25875;48.202;16.334;2023-11-21T04:55:48;6.57;;;3.13;;
40154;SDS011;25875;48.202;16.334;2023-11-21T04:58:16;4.85;;;3.10;;
40154;SDS011;25875;48.202;16.334;2023-11-21T05:00:42;5.93;;;2.72;;
40154;SDS011;25875;48.202;16.334;2023-11-21T05:03:09;5.97;;;3.30;;
40154;SDS011;25875;48.202;16.334;2023-11-21T05:05:36;5.10;;;3.45;;
40154;SDS011;25875;48.202;16.334;2023-11-21T05:08:02;6.15;;;3.38;;
40154;SDS011;25875;48.202;16.334;2023-11-21T05:10:29;7.20;;;3.25;;
40154;SDS011;25875;48.202;16.334;2023-11-21T05:12:56;6.10;;;2.80;;
40154;SDS011;25875;48.202;16.334;2023-11-21T05:15:24;8.05;;;3.33;;
40154;SDS011;25875;48.202;16.334;2023-11-21T05:17:52;5.43;;;3.47;;
40154;SDS011;25875;48.202;16.334;2023-11-21T05:20:20;5.60;;;3.00;;
40154;SDS011;25875;48.202;16.334;2023-11-21T05:22:47;8.07;;;3.92;;
40154;SDS011;25875;48.202;16.334;2023-11-21T05:25:14;7.90;;;2.90;;
40154;SDS011;25875;48.202;16.334;2023-11-21T05:27:43;8.13;;;3.10;;
40154;SDS011;25875;48.202;16.334;2023-11-21T05:30:10;5.57;;;3.08;;
40154;SDS011;25875;48.202;16.334;2023-11-21T05:32:39;4.85;;;3.13;;
40154;SDS011;25875;48.202;16.334;2023-11-21T05:35:07;7.45;;;3.20;;
40154;SDS011;25875;48.202;16.334;2023-11-21T05:37:39;8.05;;;3.38;;
40154;SDS011;25875;48.202;16.334;2023-11-21T05:40:06;4.85;;;3.22;;
40154;SDS011;25875;48.202;16.334;2023-11-21T05:42:34;6.57;;;3.83;;
40154;SDS011;25875;48.202;16.334;2023-11-21T05:45:01;7.63;;;4.07;;
40154;SDS011;25875;48.202;16.334;2023-11-21T05:47:35;6.97;;;4.28;;
40154;SDS011;25875;48.202;16.334;2023-11-21T05:50:05;4.85;;;3.22;;
40154;SDS011;25875;48.202;16.334;2023-11-21T05:52:35;10.07;;;4.00;;
40154;SDS011;25875;48.202;16.334;2023-11-21T05:55:02;7.97;;;3.20;;
40154;SDS011;25875;48.202;16.334;2023-11-21T05:57:30;5.70;;;3.00;;
40154;SDS011;25875;48.202;16.334;2023-11-21T05:59:57;7.78;;;3.35;;
40154;SDS011;25875;48.202;16.334;2023-11-21T06:02:24;6.72;;;3.95;;
40154;SDS011;25875;48.202;16.334;2023-11-21T06:04:51;6.47;;;3.65;;
40154;SDS011;25875;48.202;16.334;2023-11-21T06:07:19;5.72;;;3.60;;
40154;SDS011;25875;48.202;16.334;2023-11-21T06:09:45;7.15;;;3.70;;
40154;SDS011;25875;48.202;16.334;2023-11-21T06:12:13;7.07;;;3.72;;
40154;SDS011;25875;48.202;16.334;2023-11-21T06:14:41;6.80;;;4.28;;
40154;SDS011;25875;48.202;16.334;2023-11-21T06:17:07;7.50;;;3.45;;
40154;SDS011;25875;48.202;16.334;2023-11-21T06:19:34;8.20;;;3.90;;
40154;SDS011;25875;48.202;16.334;2023-11-21T06:22:01;6.10;;;3.63;;
40154;SDS011;25875;48.202;16.334;2023-11-21T06:24:29;5.95;;;3.15;;
40154;SDS011;25875;48.202;16.334;2023-11-21T06:26:56;5.82;;;4.07;;
40154;SDS011;25875;48.202;16.334;2023-11-21T06:29:23;8.02;;;3.78;;
40154;SDS011;25875;48.202;16.334;2023-11-21T06:31:51;7.80;;;4.07;;
40154;SDS011;25875;48.202;16.334;2023-11-21T06:34:20;5.55;;;3.50;;
40154;SDS011;25875;48.202;16.334;2023-11-21T06:36:46;5.80;;;3.40;;
40154;SDS011;25875;48.202;16.334;2023-11-21T06:39:13;8.85;;;3.67;;
40154;SDS011;25875;48.202;16.334;2023-11-21T06:41:43;8.55;;;4.30;;
40154;SDS011;25875;48.202;16.334;2023-11-21T06:44:09;7.63;;;4.10;;
40154;SDS011;25875;48.202;16.334;2023-11-21T06:46:36;5.65;;;3.63;;
40154;SDS011;25875;48.202;16.334;2023-11-21T06:49:04;6.47;;;3.58;;
40154;SDS011;25875;48.202;16.334;2023-11-21T06:51:31;4.70;;;3.45;;
40154;SDS011;25875;48.202;16.334;2023-11-21T06:53:58;10.10;;;3.97;;
40154;SDS011;25875;48.202;16.334;2023-11-21T06:56:24;10.32;;;4.15;;
40154;SDS011;25875;48.202;16.334;2023-11-21T06:58:52;7.38;;;2.90;;
40154;SDS011;25875;48.202;16.334;2023-11-21T07:01:19;9.93;;;3.72;;
40154;SDS011;25875;48.202;16.334;2023-11-21T07:03:46;5.75;;;3.63;;
40154;SDS011;25875;48.202;16.334;2023-11-21T07:06:13;7.38;;;3.60;;
40154;SDS011;25875;48.202;16.334;2023-11-21T07:08:39;10.73;;;4.53;;
40154;SDS011;25875;48.202;16.334;2023-11-21T07:11:06;10.00;;;3.50;;
40154;SDS011;25875;48.202;16.334;2023-11-21T07:13:33;8.45;;;4.15;;
40154;SDS011;25875;48.202;16.334;2023-11-21T07:16:01;7.35;;;3.33;;
40154;SDS011;25875;48.202;16.334;2023-11-21T07:18:28;6.00;;;3.70;;
40154;SDS011;25875;48.202;16.334;2023-11-21T07:20:54;8.35;;;4.32;;
40154;SDS011;25875;48.202;16.334;2023-11-21T07:23:21;6.10;;;3.40;;
40154;SDS011;25875;48.202;16.334;2023-11-21T07:25:48;6.55;;;3.85;;
40154;SDS011;25875;48.202;16.334;2023-11-21T07:28:15;5.95;;;3.00;;
40154;SDS011;25875;48.202;16.334;2023-11-21T07:30:42;6.55;;;3.67;;
40154;SDS011;25875;48.202;16.334;2023-11-21T07:33:10;5.38;;;3.28;;
40154;SDS011;25875;48.202;16.334;2023-11-21T07:35:37;5.05;;;3.42;;
40154;SDS011;25875;48.202;16.334;2023-11-21T07:38:04;7.28;;;2.92;;
40154;SDS011;25875;48.202;16.334;2023-11-21T07:40:30;9.25;;;4.07;;
40154;SDS011;25875;48.202;16.334;2023-11-21T07:42:57;5.32;;;3.05;;
40154;SDS011;25875;48.202;16.334;2023-11-21T07:45:24;8.30;;;3.47;;
40154;SDS011;25875;48.202;16.334;2023-11-21T07:47:52;7.78;;;3.25;;
40154;SDS011;25875;48.202;16.334;2023-11-21T07:50:21;5.57;;;2.83;;
40154;SDS011;25875;48.202;16.334;2023-11-21T07:52:48;6.75;;;3.55;;
40154;SDS011;25875;48.202;16.334;2023-11-21T07:55:14;7.47;;;3.58;;
40154;SDS011;25875;48.202;16.334;2023-11-21T07:57:41;6.50;;;3.08;;
40154;SDS011;25875;48.202;16.334;2023-11-21T08:00:08;8.23;;;3.28;;
40154;SDS011;25875;48.202;16.334;2023-11-21T08:02:37;6.43;;;3.40;;
40154;SDS011;25875;48.202;16.334;2023-11-21T08:05:04;6.57;;;2.90;;
40154;SDS011;25875;48.202;16.334;2023-11-21T08:07:33;7.32;;;3.95;;
40154;SDS011;25875;48.202;16.334;2023-11-21T08:10:00;5.60;;;3.40;;
40154;SDS011;25875;48.202;16.334;2023-11-21T08:12:28;6.22;;;3.28;;
40154;SDS011;25875;48.202;16.334;2023-11-21T08:14:54;7.90;;;3.58;;
40154;SDS011;25875;48.202;16.334;2023-11-21T08:17:21;5.18;;;3.13;;
40154;SDS011;25875;48.202;16.334;2023-11-21T08:19:48;6.93;;;3.20;;
40154;SDS011;25875;48.202;16.334;2023-11-21T08:22:16;4.78;;;3.08;;
40154;SDS011;25875;48.202;16.334;2023-11-21T08:24:44;9.65;;;3.70;;
40154;SDS011;25875;48.202;16.334;2023-11-21T08:27:12;5.05;;;3.58;;
40154;SDS011;25875;48.202;16.334;2023-11-21T08:29:40;8.18;;;3.40;;
40154;SDS011;25875;48.202;16.334;2023-11-21T08:32:07;6.57;;;3.58;;
40154;SDS011;25875;48.202;16.334;2023-11-21T08:34:34;5.10;;;3.70;;
40154;SDS011;25875;48.202;16.334;2023-11-21T08:37:00;8.10;;;4.00;;
40154;SDS011;25875;48.202;16.334;2023-11-21T08:39:27;6.18;;;3.17;;
40154;SDS011;25875;48.202;16.334;2023-11-21T08:41:56;7.43;;;3.70;;
40154;SDS011;25875;48.202;16.334;2023-11-21T08:44:23;7.15;;;3.35;;
40154;SDS011;25875;48.202;16.334;2023-11-21T08:46:50;6.30;;;3.85;;
40154;SDS011;25875;48.202;16.334;2023-11-21T08:49:16;5.95;;;3.45;;
40154;SDS011;25875;48.202;16.334;2023-11-21T08:51:44;6.55;;;4.15;;
40154;SDS011;25875;48.202;16.334;2023-11-21T08:54:11;7.85;;;4.13;;
40154;SDS011;25875;48.202;16.334;2023-11-21T08:56:37;6.45;;;3.90;;
40154;SDS011;25875;48.202;16.334;2023-11-21T08:59:05;9.27;;;3.95;;
40154;SDS011;25875;48.202;16.334;2023-11-21T09:01:33;10.73;;;3.60;;
40154;SDS011;25875;48.202;16.334;2023-11-21T09:03:59;8.70;;;4.00;;
40154;SDS011;25875;48.202;16.334;2023-11-21T09:06:27;9.00;;;3.90;;
40154;SDS011;25875;48.202;16.334;2023-11-21T09:08:54;7.25;;;3.90;;
40154;SDS011;25875;48.202;16.334;2023-11-21T09:11:20;6.68;;;3.63;;
40154;SDS011;25875;48.202;16.334;2023-11-21T09:13:47;5.30;;;3.33;;
40154;SDS011;25875;48.202;16.334;2023-11-21T09:16:15;5.75;;;3.30;;
40154;SDS011;25875;48.202;16.334;2023-11-21T09:18:42;5.65;;;3.50;;
40154;SDS011;25875;48.202;16.334;2023-11-21T09:21:08;5.53;;;3.25;;
40154;SDS011;25875;48.202;16.334;2023-11-21T09:23:35;6.38;;;3.97;;
40154;SDS011;25875;48.202;16.334;2023-11-21T09:26:02;4.15;;;2.60;;
40154;SDS011;25875;48.202;16.334;2023-11-21T09:28:30;6.25;;;2.92;;
40154;SDS011;25875;48.202;16.334;2023-11-21T09:30:57;7.85;;;3.67;;
40154;SDS011;25875;48.202;16.334;2023-11-21T09:33:24;4.45;;;2.42;;
40154;SDS011;25875;48.202;16.334;2023-11-21T09:35:51;4.78;;;3.20;;
40154;SDS011;25875;48.202;16.334;2023-11-21T09:38:18;5.78;;;2.97;;
40154;SDS011;25875;48.202;16.334;2023-11-21T09:40:44;6.18;;;2.83;;
40154;SDS011;25875;48.202;16.334;2023-11-21T09:43:14;6.90;;;2.70;;
40154;SDS011;25875;48.202;16.334;2023-11-21T09:45:43;3.95;;;2.65;;
40154;SDS011;25875;48.202;16.334;2023-11-21T09:48:12;4.45;;;2.90;;
40154;SDS011;25875;48.202;16.334;2023-11-21T09:50:40;5.47;;;2.63;;
40154;SDS011;25875;48.202;16.334;2023-11-21T09:53:11;6.10;;;3.22;;
40154;SDS011;25875;48.202;16.334;2023-11-21T09:55:41;5.15;;;2.28;;
40154;SDS011;25875;48.202;16.334;2023-11-21T09:58:09;6.10;;;2.40;;
40154;SDS011;25875;48.202;16.334;2023-11-21T10:00:37;3.97;;;2.60;;
40154;SDS011;25875;48.202;16.334;2023-11-21T10:03:06;3.67;;;2.03;;
40154;SDS011;25875;48.202;16.334;2023-11-21T10:05:33;5.18;;;2.40;;
40154;SDS011;25875;48.202;16.334;2023-11-21T10:08:01;4.63;;;2.30;;
40154;SDS011;25875;48.202;16.334;2023-11-21T10:10:31;4.03;;;2.25;;
40154;SDS011;25875;48.202;16.334;2023-11-21T10:13:01;4.60;;;2.05;;
40154;SDS011;25875;48.202;16.334;2023-11-21T10:15:31;3.78;;;1.85;;
40154;SDS011;25875;48.202;16.334;2023-11-21T10:18:00;5.40;;;2.53;;
40154;SDS011;25875;48.202;16.334;2023-11-21T10:20:29;4.72;;;2.33;;
40154;SDS011;25875;48.202;16.334;2023-11-21T10:22:56;3.72;;;2.03;;
40154;SDS011;25875;48.202;16.334;2023-11-21T10:25:24;3.88;;;1.60;;
40154;SDS011;25875;48.202;16.334;2023-11-21T10:27:55;6.50;;;2.45;;
40154;SDS011;25875;48.202;16.334;2023-11-21T10:30:27;5.50;;;3.25;;
40154;SDS011;25875;48.202;16.334;2023-11-21T10:32:58;3.70;;;2.08;;
40154;SDS011;25875;48.202;16.334;2023-11-21T10:35:29;5.80;;;2.42;;
40154;SDS011;25875;48.202;16.334;2023-11-21T10:38:05;4.32;;;2.50;;
40154;SDS011;25875;48.202;16.334;2023-11-21T10:40:36;4.07;;;3.00;;
40154;SDS011;25875;48.202;16.334;2023-11-21T10:43:05;4.55;;;2.80;;
40154;SDS011;25875;48.202;16.334;2023-11-21T10:45:33;4.65;;;2.63;;
40154;SDS011;25875;48.202;16.334;2023-11-21T10:48:04;4.75;;;2.30;;
40154;SDS011;25875;48.202;16.334;2023-11-21T10:50:32;4.15;;;2.10;;
40154;SDS011;25875;48.202;16.334;2023-11-21T10:53:00;3.65;;;2.13;;
40154;SDS011;25875;48.202;16.334;2023-11-21T10:55:28;4.78;;;2.58;;
40154;SDS011;25875;48.202;16.334;2023-11-21T10:57:58;6.03;;;2.40;;
40154;SDS011;25875;48.202;16.334;2023-11-21T11:00:27;6.28;;;2.53;;
40154;SDS011;25875;48.202;16.334;2023-11-21T11:02:54;5.03;;;3.20;;
40154;SDS011;25875;48.202;16.334;2023-11-21T11:05:22;6.07;;;2.67;;
40154;SDS011;25875;48.202;16.334;2023-11-21T11:07:51;4.78;;;2.22;;
40154;SDS011;25875;48.202;16.334;2023-11-21T11:10:25;3.85;;;2.10;;
40154;SDS011;25875;48.202;16.334;2023-11-21T11:12:52;4.38;;;2.80;;
40154;SDS011;25875;48.202;16.334;2023-11-21T11:15:21;3.13;;;2.10;;
40154;SDS011;25875;48.202;16.334;2023-11-21T11:17:48;3.90;;;2.40;;
40154;SDS011;25875;48.202;16.334;2023-11-21T11:20:16;5.47;;;2.80;;
40154;SDS011;25875;48.202;16.334;2023-11-21T11:22:48;5.50;;;2.63;;
40154;SDS011;25875;48.202;16.334;2023-11-21T11:25:32;5.65;;;3.47;;
40154;SDS011;25875;48.202;16.334;2023-11-21T11:28:10;3.72;;;2.60;;
40154;SDS011;25875;48.202;16.334;2023-11-21T11:30:45;4.90;;;2.10;;
40154;SDS011;25875;48.202;16.334;2023-11-21T11:33:26;4.63;;;2.47;;
40154;SDS011;25875;48.202;16.334;2023-11-21T11:36:00;3.78;;;2.10;;
40154;SDS011;25875;48.202;16.334;2023-11-21T11:38:31;4.03;;;2.10;;
40154;SDS011;25875;48.202;16.334;2023-11-21T11:41:01;4.03;;;2.08;;
40154;SDS011;25875;48.202;16.334;2023-11-21T11:43:29;3.63;;;1.95;;
40154;SDS011;25875;48.202;16.334;2023-11-21T11:45:59;3.38;;;1.90;;
40154;SDS011;25875;48.202;16.334;2023-11-21T11:48:29;4.55;;;2.85;;
40154;SDS011;25875;48.202;16.334;2023-11-21T11:51:03;5.07;;;2.50;;
40154;SDS011;25875;48.202;16.334;2023-11-21T11:53:35;4.45;;;2.70;;
40154;SDS011;25875;48.202;16.334;2023-11-21T11:56:21;6.63;;;3.58;;
40154;SDS011;25875;48.202;16.334;2023-11-21T11:58:51;4.93;;;2.70;;
40154;SDS011;25875;48.202;16.334;2023-11-21T12:01:19;4.32;;;2.83;;
40154;SDS011;25875;48.202;16.334;2023-11-21T12:06:48;4.32;;;2.58;;
40154;SDS011;25875;48.202;16.334;2023-11-21T12:09:18;5.10;;;3.05;;
40154;SDS011;25875;48.202;16.334;2023-11-21T12:11:45;6.25;;;3.30;;
40154;SDS011;25875;48.202;16.334;2023-11-21T12:14:12;5.30;;;3.20;;
40154;SDS011;25875;48.202;16.334;2023-11-21T12:16:41;6.28;;;3.38;;
40154;SDS011;25875;48.202;16.334;2023-11-21T12:19:09;4.63;;;2.97;;
40154;SDS011;25875;48.202;16.334;2023-11-21T12:21:36;4.45;;;2.97;;
40154;SDS011;25875;48.202;16.334;2023-11-21T12:24:03;5.20;;;2.88;;
40154;SDS011;25875;48.202;16.334;2023-11-21T12:26:33;6.28;;;2.85;;
40154;SDS011;25875;48.202;16.334;2023-11-21T12:29:00;4.75;;;3.22;;
40154;SDS011;25875;48.202;16.334;2023-11-21T12:31:29;3.88;;;2.50;;
40154;SDS011;25875;48.202;16.334;2023-11-21T12:33:57;5.07;;;2.83;;
40154;SDS011;25875;48.202;16.334;2023-11-21T12:36:24;10.45;;;5.65;;
40154;SDS011;25875;48.202;16.334;2023-11-21T12:38:54;6.55;;;4.95;;
40154;SDS011;25875;48.202;16.334;2023-11-21T12:41:20;6.07;;;4.03;;
40154;SDS011;25875;48.202;16.334;2023-11-21T12:43:47;4.93;;;3.33;;
40154;SDS011;25875;48.202;16.334;2023-11-21T12:46:14;5.30;;;3.65;;
40154;SDS011;25875;48.202;16.334;2023-11-21T12:48:42;6.22;;;3.90;;
40154;SDS011;25875;48.202;16.334;2023-11-21T12:51:12;7.13;;;3.80;;
40154;SDS011;25875;48.202;16.334;2023-11-21T12:53:41;5.78;;;3.63;;
40154;SDS011;25875;48.202;16.334;2023-11-21T12:56:09;4.35;;;3.08;;
40154;SDS011;25875;48.202;16.334;2023-11-21T12:58:36;4.40;;;2.63;;
40154;SDS011;25875;48.202;16.334;2023-11-21T13:01:04;6.10;;;2.90;;
40154;SDS011;25875;48.202;16.334;2023-11-21T13:03:37;5.78;;;2.40;;
40154;SDS011;25875;48.202;16.334;2023-11-21T13:06:04;4.68;;;2.78;;
40154;SDS011;25875;48.202;16.334;2023-11-21T13:08:34;4.72;;;2.63;;
40154;SDS011;25875;48.202;16.334;2023-11-21T13:11:04;5.43;;;3.30;;
40154;SDS011;25875;48.202;16.334;2023-11-21T13:13:32;5.45;;;3.08;;
40154;SDS011;25875;48.202;16.334;2023-11-21T13:15:59;4.57;;;2.60;;
40154;SDS011;25875;48.202;16.334;2023-11-21T13:18:29;4.55;;;2.38;;
40154;SDS011;25875;48.202;16.334;2023-11-21T13:20:58;2.97;;;2.08;;
40154;SDS011;25875;48.202;16.334;2023-11-21T13:23:26;4.25;;;2.22;;
40154;SDS011;25875;48.202;16.334;2023-11-21T13:25:55;3.67;;;2.42;;
40154;SDS011;25875;48.202;16.334;2023-11-21T13:28:23;4.43;;;2.83;;
40154;SDS011;25875;48.202;16.334;2023-11-21T13:30:56;5.72;;;3.20;;
40154;SDS011;25875;48.202;16.334;2023-11-21T13:33:28;3.65;;;2.40;;
40154;SDS011;25875;48.202;16.334;2023-11-21T13:35:55;6.63;;;2.50;;
40154;SDS011;25875;48.202;16.334;2023-11-21T13:38:22;4.28;;;2.50;;
40154;SDS011;25875;48.202;16.334;2023-11-21T13:40:49;5.47;;;2.70;;
40154;SDS011;25875;48.202;16.334;2023-11-21T13:43:20;5.43;;;2.65;;
40154;SDS011;25875;48.202;16.334;2023-11-21T13:45:49;3.70;;;2.40;;
40154;SDS011;25875;48.202;16.334;2023-11-21T13:48:20;5.63;;;2.75;;
40154;SDS011;25875;48.202;16.334;2023-11-21T13:50:53;4.50;;;2.80;;
40154;SDS011;25875;48.202;16.334;2023-11-21T13:53:24;4.68;;;2.72;;
40154;SDS011;25875;48.202;16.334;2023-11-21T13:55:50;4.40;;;2.20;;
40154;SDS011;25875;48.202;16.334;2023-11-21T13:58:21;4.93;;;2.50;;
40154;SDS011;25875;48.202;16.334;2023-11-21T14:00:51;5.40;;;2.65;;
40154;SDS011;25875;48.202;16.334;2023-11-21T14:03:21;5.00;;;2.85;;
40154;SDS011;25875;48.202;16.334;2023-11-21T14:06:00;4.40;;;2.47;;
40154;SDS011;25875;48.202;16.334;2023-11-21T14:08:33;4.53;;;3.10;;
40154;SDS011;25875;48.202;16.334;2023-11-21T14:11:00;4.75;;;3.38;;
40154;SDS011;25875;48.202;16.334;2023-11-21T14:13:28;6.95;;;3.83;;
40154;SDS011;25875;48.202;16.334;2023-11-21T14:15:55;5.10;;;3.00;;
40154;SDS011;25875;48.202;16.334;2023-11-21T14:18:26;5.60;;;3.65;;
40154;SDS011;25875;48.202;16.334;2023-11-21T14:20:59;4.88;;;3.03;;
40154;SDS011;25875;48.202;16.334;2023-11-21T14:23:25;5.95;;;3.42;;
40154;SDS011;25875;48.202;16.334;2023-11-21T14:25:53;5.47;;;3.15;;
40154;SDS011;25875;48.202;16.334;2023-11-21T14:28:21;4.97;;;2.95;;
40154;SDS011;25875;48.202;16.334;2023-11-21T14:30:49;4.85;;;3.38;;
40154;SDS011;25875;48.202;16.334;2023-11-21T14:33:16;4.45;;;3.03;;
40154;SDS011;25875;48.202;16.334;2023-11-21T14:35:43;6.38;;;3.00;;
40154;SDS011;25875;48.202;16.334;2023-11-21T14:38:09;5.60;;;3.22;;
40154;SDS011;25875;48.202;16.334;2023-11-21T14:40:36;4.13;;;3.05;;